TFM - Tactical Decision Aid (Experimental) INFO Settings
ID: Runway Winds: CIG/VIS Threshold: METAR Board: Map:

Katl - Atlanta-Hartsfield Jackson Intl

Updated at: 1234 UTC 02 May 2016
Latest TAF at: 1122 UTC 02 May 2016

TAF Board

Time1152Z02/13Z02/14Z02/15Z02/16Z02/17Z02/18Z02/19Z02/20Z02/21Z02/22Z02/23Z03/00Z03/01Z
TypeOBSPRVLPRVLPRVLPRVLPRVLPRVLPRVLPRVLPRVLPRVLPRVLPRVLPRVL
VIS10>6>6>6>6>6>6>6444444
CIG--110110150150150150150252525252525
CoverSCTBKNBKNBKNBKNBKNBKNBKNBKNBKNBKNBKNBKNBKN
FltCatVFRVFRVFRVFRVFRVFRVFRVFRMVFRMVFRMVFRMVFRMVFRMVFR
WX-----------------TSRA BR-TSRA BR-TSRA BR-TSRA BR-TSRA BR-TSRA BR
WDirVRB220220220220220220220220220220220220220
WSpd04488888999999
WGst----------------------------
TAF
KATL 021122Z 0212/0318 22004KT P6SM SCT035 BKN110
  FM021500 22008KT P6SM SCT040 BKN150
  FM022000 22009KT 4SM -TSRA BR BKN025CB
  FM030300 23008KT P6SM VCSH BKN040
  FM030500 25004KT 5SM BR SCT009 BKN015
  FM031200 24005KT P6SM BKN007
  PROB30 0315/0318 -SHRA SCT007 BKN015


METAR
KATL 021152Z 00000KT 10SM FEW037 SCT110 SCT250 21/18 A3004 RMK AO2 SLP163 70020 T02060183 10206 20189 53008

TAF/METAR Board Legend

Potential Impact
  None Marginal Slight Moderate High
Visibility (sm) > ≤X≤ <
Ceiling (100 ft) > ≤X≤ <
Wind Speed (kt) <10 10≤X<20 20≤X<30 ≥30
Wind Gust (kt) <15 15≤X<25 25≤X<35 ≥35
Weather No Wx Reported VCTS -TS,-FZRA TS,FZRA +TS,+FZRA